sensor_id;sensor_type;location;lat;lon;timestamp;temperature;humidity
13652;DHT22;6899;51.546;6.912;2023-10-31T00:01:28;11.90;99.90
13652;DHT22;6899;51.546;6.912;2023-10-31T00:03:55;11.80;99.90
13652;DHT22;6899;51.546;6.912;2023-10-31T00:06:23;11.70;99.90
13652;DHT22;6899;51.546;6.912;2023-10-31T00:08:51;11.60;99.90
13652;DHT22;6899;51.546;6.912;2023-10-31T00:11:18;11.50;99.90
13652;DHT22;6899;51.546;6.912;2023-10-31T00:13:44;11.40;99.90
13652;DHT22;6899;51.546;6.912;2023-10-31T00:16:11;11.30;99.90
13652;DHT22;6899;51.546;6.912;2023-10-31T00:18:38;11.20;99.90
13652;DHT22;6899;51.546;6.912;2023-10-31T00:21:05;11.00;99.90
13652;DHT22;6899;51.546;6.912;2023-10-31T00:23:33;10.90;99.90
13652;DHT22;6899;51.546;6.912;2023-10-31T00:26:00;10.80;99.90
13652;DHT22;6899;51.546;6.912;2023-10-31T00:28:27;10.70;99.90
13652;DHT22;6899;51.546;6.912;2023-10-31T00:30:53;10.60;99.90
13652;DHT22;6899;51.546;6.912;2023-10-31T00:33:20;10.50;99.90
13652;DHT22;6899;51.546;6.912;2023-10-31T00:35:47;10.50;99.90
13652;DHT22;6899;51.546;6.912;2023-10-31T00:38:14;10.40;99.90
13652;DHT22;6899;51.546;6.912;2023-10-31T00:40:42;10.40;99.90
13652;DHT22;6899;51.546;6.912;2023-10-31T00:43:08;10.40;99.90
13652;DHT22;6899;51.546;6.912;2023-10-31T00:45:35;10.30;99.90
13652;DHT22;6899;51.546;6.912;2023-10-31T00:48:02;10.30;99.90
13652;DHT22;6899;51.546;6.912;2023-10-31T00:50:29;10.30;99.90
13652;DHT22;6899;51.546;6.912;2023-10-31T00:52:56;10.30;99.90
13652;DHT22;6899;51.546;6.912;2023-10-31T00:55:23;10.20;99.90
13652;DHT22;6899;51.546;6.912;2023-10-31T00:57:52;10.20;99.90
13652;DHT22;6899;51.546;6.912;2023-10-31T01:00:19;10.20;99.90
13652;DHT22;6899;51.546;6.912;2023-10-31T01:02:46;10.10;99.90
13652;DHT22;6899;51.546;6.912;2023-10-31T01:05:13;10.10;99.90
13652;DHT22;6899;51.546;6.912;2023-10-31T01:07:40;10.00;99.90
13652;DHT22;6899;51.546;6.912;2023-10-31T01:10:07;10.00;99.90
13652;DHT22;6899;51.546;6.912;2023-10-31T01:12:34;10.00;99.90
13652;DHT22;6899;51.546;6.912;2023-10-31T01:15:02;9.90;99.90
13652;DHT22;6899;51.546;6.912;2023-10-31T01:17:30;9.90;99.90
13652;DHT22;6899;51.546;6.912;2023-10-31T01:19:57;9.90;99.90
13652;DHT22;6899;51.546;6.912;2023-10-31T01:22:23;9.80;99.90
13652;DHT22;6899;51.546;6.912;2023-10-31T01:24:50;9.80;99.90
13652;DHT22;6899;51.546;6.912;2023-10-31T01:27:17;9.80;99.90
13652;DHT22;6899;51.546;6.912;2023-10-31T01:29:44;9.70;99.90
13652;DHT22;6899;51.546;6.912;2023-10-31T01:32:12;9.70;99.90
13652;DHT22;6899;51.546;6.912;2023-10-31T01:34:39;9.70;99.90
13652;DHT22;6899;51.546;6.912;2023-10-31T01:37:05;9.70;99.90
13652;DHT22;6899;51.546;6.912;2023-10-31T01:39:32;9.60;99.90
13652;DHT22;6899;51.546;6.912;2023-10-31T01:41:59;9.70;99.90
13652;DHT22;6899;51.546;6.912;2023-10-31T01:44:26;9.60;99.90
13652;DHT22;6899;51.546;6.912;2023-10-31T01:46:52;9.60;99.90
13652;DHT22;6899;51.546;6.912;2023-10-31T01:49:20;9.60;99.90
13652;DHT22;6899;51.546;6.912;2023-10-31T01:51:48;9.60;99.90
13652;DHT22;6899;51.546;6.912;2023-10-31T01:54:15;9.60;99.90
13652;DHT22;6899;51.546;6.912;2023-10-31T01:56:43;9.70;99.90
13652;DHT22;6899;51.546;6.912;2023-10-31T01:59:10;9.60;99.90
13652;DHT22;6899;51.546;6.912;2023-10-31T02:01:38;9.60;99.90
13652;DHT22;6899;51.546;6.912;2023-10-31T02:04:05;9.60;99.90
13652;DHT22;6899;51.546;6.912;2023-10-31T02:06:33;9.60;99.90
13652;DHT22;6899;51.546;6.912;2023-10-31T02:09:00;9.70;99.90
13652;DHT22;6899;51.546;6.912;2023-10-31T02:11:27;9.70;99.90
13652;DHT22;6899;51.546;6.912;2023-10-31T02:13:54;9.70;99.90
13652;DHT22;6899;51.546;6.912;2023-10-31T02:16:20;9.70;99.90
13652;DHT22;6899;51.546;6.912;2023-10-31T02:18:47;9.70;99.90
13652;DHT22;6899;51.546;6.912;2023-10-31T02:21:15;9.70;99.90
13652;DHT22;6899;51.546;6.912;2023-10-31T02:23:56;9.80;99.90
13652;DHT22;6899;51.546;6.912;2023-10-31T02:26:23;9.80;99.90
13652;DHT22;6899;51.546;6.912;2023-10-31T02:28:50;9.80;99.90
13652;DHT22;6899;51.546;6.912;2023-10-31T02:31:16;9.80;99.90
13652;DHT22;6899;51.546;6.912;2023-10-31T02:33:44;9.80;99.90
13652;DHT22;6899;51.546;6.912;2023-10-31T02:36:10;9.80;99.90
13652;DHT22;6899;51.546;6.912;2023-10-31T02:38:37;9.80;99.90
13652;DHT22;6899;51.546;6.912;2023-10-31T02:41:05;9.80;99.90
13652;DHT22;6899;51.546;6.912;2023-10-31T02:43:32;9.70;99.90
13652;DHT22;6899;51.546;6.912;2023-10-31T02:45:59;9.70;99.90
13652;DHT22;6899;51.546;6.912;2023-10-31T02:48:26;9.70;99.90
13652;DHT22;6899;51.546;6.912;2023-10-31T02:50:54;9.70;99.90
13652;DHT22;6899;51.546;6.912;2023-10-31T02:53:21;9.70;99.90
13652;DHT22;6899;51.546;6.912;2023-10-31T02:55:48;9.70;99.90
13652;DHT22;6899;51.546;6.912;2023-10-31T02:58:16;9.80;99.90
13652;DHT22;6899;51.546;6.912;2023-10-31T03:00:43;9.80;99.90
13652;DHT22;6899;51.546;6.912;2023-10-31T03:03:10;9.70;99.90
13652;DHT22;6899;51.546;6.912;2023-10-31T03:05:37;9.80;99.90
13652;DHT22;6899;51.546;6.912;2023-10-31T03:08:04;9.80;99.90
13652;DHT22;6899;51.546;6.912;2023-10-31T03:10:30;9.80;99.90
13652;DHT22;6899;51.546;6.912;2023-10-31T03:12:57;9.80;99.90
13652;DHT22;6899;51.546;6.912;2023-10-31T03:15:26;9.80;99.90
13652;DHT22;6899;51.546;6.912;2023-10-31T03:17:53;9.80;99.90
13652;DHT22;6899;51.546;6.912;2023-10-31T03:20:19;9.80;99.90
13652;DHT22;6899;51.546;6.912;2023-10-31T03:22:46;9.80;99.90
13652;DHT22;6899;51.546;6.912;2023-10-31T03:25:13;9.80;99.90
13652;DHT22;6899;51.546;6.912;2023-10-31T03:27:40;9.80;99.90
13652;DHT22;6899;51.546;6.912;2023-10-31T03:30:07;9.80;99.90
13652;DHT22;6899;51.546;6.912;2023-10-31T03:32:36;9.80;99.90
13652;DHT22;6899;51.546;6.912;2023-10-31T03:35:03;9.90;99.90
13652;DHT22;6899;51.546;6.912;2023-10-31T03:37:30;9.80;99.90
13652;DHT22;6899;51.546;6.912;2023-10-31T03:39:57;9.80;99.90
13652;DHT22;6899;51.546;6.912;2023-10-31T03:42:24;9.80;99.90
13652;DHT22;6899;51.546;6.912;2023-10-31T03:44:50;9.90;99.90
13652;DHT22;6899;51.546;6.912;2023-10-31T03:47:17;9.90;99.90
13652;DHT22;6899;51.546;6.912;2023-10-31T03:49:45;9.90;99.90
13652;DHT22;6899;51.546;6.912;2023-10-31T03:52:12;9.90;99.90
13652;DHT22;6899;51.546;6.912;2023-10-31T03:54:39;9.90;99.90
13652;DHT22;6899;51.546;6.912;2023-10-31T03:57:06;9.90;99.90
13652;DHT22;6899;51.546;6.912;2023-10-31T03:59:32;9.90;99.90
13652;DHT22;6899;51.546;6.912;2023-10-31T04:01:59;9.90;99.90
13652;DHT22;6899;51.546;6.912;2023-10-31T04:04:26;9.90;99.90
13652;DHT22;6899;51.546;6.912;2023-10-31T04:06:54;9.90;99.90
13652;DHT22;6899;51.546;6.912;2023-10-31T04:09:21;9.90;99.90
13652;DHT22;6899;51.546;6.912;2023-10-31T04:11:48;9.90;99.90
13652;DHT22;6899;51.546;6.912;2023-10-31T04:14:14;9.90;99.90
13652;DHT22;6899;51.546;6.912;2023-10-31T04:16:42;9.90;99.90
13652;DHT22;6899;51.546;6.912;2023-10-31T04:19:11;9.90;99.90
13652;DHT22;6899;51.546;6.912;2023-10-31T04:21:38;9.90;99.90
13652;DHT22;6899;51.546;6.912;2023-10-31T04:24:06;9.90;99.90
13652;DHT22;6899;51.546;6.912;2023-10-31T04:26:33;9.90;99.90
13652;DHT22;6899;51.546;6.912;2023-10-31T04:29:00;9.90;99.90
13652;DHT22;6899;51.546;6.912;2023-10-31T04:31:27;9.90;99.90
13652;DHT22;6899;51.546;6.912;2023-10-31T04:33:53;9.90;99.90
13652;DHT22;6899;51.546;6.912;2023-10-31T04:36:20;9.90;99.90
13652;DHT22;6899;51.546;6.912;2023-10-31T04:38:47;9.90;99.90
13652;DHT22;6899;51.546;6.912;2023-10-31T04:41:15;9.90;99.90
13652;DHT22;6899;51.546;6.912;2023-10-31T04:43:42;9.90;99.90
13652;DHT22;6899;51.546;6.912;2023-10-31T04:46:09;9.90;99.90
13652;DHT22;6899;51.546;6.912;2023-10-31T04:48:35;9.90;99.90
13652;DHT22;6899;51.546;6.912;2023-10-31T04:51:03;9.90;99.90
13652;DHT22;6899;51.546;6.912;2023-10-31T04:53:30;9.90;99.90
13652;DHT22;6899;51.546;6.912;2023-10-31T04:55:58;9.90;99.90
13652;DHT22;6899;51.546;6.912;2023-10-31T04:58:26;9.90;99.90
13652;DHT22;6899;51.546;6.912;2023-10-31T05:00:53;9.90;99.90
13652;DHT22;6899;51.546;6.912;2023-10-31T05:03:20;9.90;99.90
13652;DHT22;6899;51.546;6.912;2023-10-31T05:05:46;9.90;99.90
13652;DHT22;6899;51.546;6.912;2023-10-31T05:08:13;9.90;99.90
13652;DHT22;6899;51.546;6.912;2023-10-31T05:10:40;9.90;99.90
13652;DHT22;6899;51.546;6.912;2023-10-31T05:13:07;9.90;99.90
13652;DHT22;6899;51.546;6.912;2023-10-31T05:15:35;9.90;99.90
13652;DHT22;6899;51.546;6.912;2023-10-31T05:18:02;9.90;99.90
13652;DHT22;6899;51.546;6.912;2023-10-31T05:20:28;9.90;99.90
13652;DHT22;6899;51.546;6.912;2023-10-31T05:22:55;9.90;99.90
13652;DHT22;6899;51.546;6.912;2023-10-31T05:25:22;9.90;99.90
13652;DHT22;6899;51.546;6.912;2023-10-31T05:27:49;9.90;99.90
13652;DHT22;6899;51.546;6.912;2023-10-31T05:30:16;9.90;99.90
13652;DHT22;6899;51.546;6.912;2023-10-31T05:32:44;9.80;99.90
13652;DHT22;6899;51.546;6.912;2023-10-31T05:35:11;9.80;99.90
13652;DHT22;6899;51.546;6.912;2023-10-31T05:37:37;9.80;99.90
13652;DHT22;6899;51.546;6.912;2023-10-31T05:40:05;9.80;99.90
13652;DHT22;6899;51.546;6.912;2023-10-31T05:42:32;9.80;99.90
13652;DHT22;6899;51.546;6.912;2023-10-31T05:44:59;9.80;99.90
13652;DHT22;6899;51.546;6.912;2023-10-31T05:47:26;9.80;99.90
13652;DHT22;6899;51.546;6.912;2023-10-31T05:49:54;9.80;99.90
13652;DHT22;6899;51.546;6.912;2023-10-31T05:52:21;9.80;99.90
13652;DHT22;6899;51.546;6.912;2023-10-31T05:54:48;9.80;99.90
13652;DHT22;6899;51.546;6.912;2023-10-31T05:57:15;9.80;99.90
13652;DHT22;6899;51.546;6.912;2023-10-31T05:59:41;9.80;99.90
13652;DHT22;6899;51.546;6.912;2023-10-31T06:02:08;9.80;99.90
13652;DHT22;6899;51.546;6.912;2023-10-31T06:04:35;9.80;99.90
13652;DHT22;6899;51.546;6.912;2023-10-31T06:07:04;9.80;99.90
13652;DHT22;6899;51.546;6.912;2023-10-31T06:09:30;9.80;99.90
13652;DHT22;6899;51.546;6.912;2023-10-31T06:11:58;9.80;99.90
13652;DHT22;6899;51.546;6.912;2023-10-31T06:14:25;9.80;99.90
13652;DHT22;6899;51.546;6.912;2023-10-31T06:16:52;9.80;99.90
13652;DHT22;6899;51.546;6.912;2023-10-31T06:19:20;9.80;99.90
13652;DHT22;6899;51.546;6.912;2023-10-31T06:21:46;9.70;99.90
13652;DHT22;6899;51.546;6.912;2023-10-31T06:24:15;9.70;99.90
13652;DHT22;6899;51.546;6.912;2023-10-31T06:26:41;9.60;99.90
13652;DHT22;6899;51.546;6.912;2023-10-31T06:29:08;9.60;99.90
13652;DHT22;6899;51.546;6.912;2023-10-31T06:31:35;9.70;99.90
13652;DHT22;6899;51.546;6.912;2023-10-31T06:34:02;9.60;99.90
13652;DHT22;6899;51.546;6.912;2023-10-31T06:36:28;9.70;99.90
13652;DHT22;6899;51.546;6.912;2023-10-31T06:38:55;9.70;99.90
13652;DHT22;6899;51.546;6.912;2023-10-31T06:41:23;9.70;99.90
13652;DHT22;6899;51.546;6.912;2023-10-31T06:43:50;9.70;99.90
13652;DHT22;6899;51.546;6.912;2023-10-31T06:46:17;9.70;99.90
13652;DHT22;6899;51.546;6.912;2023-10-31T06:48:44;9.70;99.90
13652;DHT22;6899;51.546;6.912;2023-10-31T06:51:11;9.80;99.90
13652;DHT22;6899;51.546;6.912;2023-10-31T06:53:38;9.80;99.90
13652;DHT22;6899;51.546;6.912;2023-10-31T06:56:05;9.80;99.90
13652;DHT22;6899;51.546;6.912;2023-10-31T06:58:34;9.80;99.90
13652;DHT22;6899;51.546;6.912;2023-10-31T07:01:01;9.80;99.90
13652;DHT22;6899;51.546;6.912;2023-10-31T07:03:28;9.80;99.90
13652;DHT22;6899;51.546;6.912;2023-10-31T07:05:54;9.90;99.90
13652;DHT22;6899;51.546;6.912;2023-10-31T07:08:22;9.90;99.90
13652;DHT22;6899;51.546;6.912;2023-10-31T07:10:49;9.90;99.90
13652;DHT22;6899;51.546;6.912;2023-10-31T07:13:16;9.80;99.90
13652;DHT22;6899;51.546;6.912;2023-10-31T07:15:44;9.80;99.90
13652;DHT22;6899;51.546;6.912;2023-10-31T07:18:12;9.80;99.90
13652;DHT22;6899;51.546;6.912;2023-10-31T07:20:39;9.90;99.90
13652;DHT22;6899;51.546;6.912;2023-10-31T07:23:05;9.90;99.90
13652;DHT22;6899;51.546;6.912;2023-10-31T07:25:32;10.00;99.90
13652;DHT22;6899;51.546;6.912;2023-10-31T07:27:59;10.00;99.90
13652;DHT22;6899;51.546;6.912;2023-10-31T07:30:26;10.10;99.90
13652;DHT22;6899;51.546;6.912;2023-10-31T07:32:54;10.10;99.90
13652;DHT22;6899;51.546;6.912;2023-10-31T07:35:21;10.20;99.90
13652;DHT22;6899;51.546;6.912;2023-10-31T07:37:47;10.10;99.90
13652;DHT22;6899;51.546;6.912;2023-10-31T07:40:14;10.20;99.90
13652;DHT22;6899;51.546;6.912;2023-10-31T07:42:41;10.20;99.90
13652;DHT22;6899;51.546;6.912;2023-10-31T07:45:09;10.10;99.90
13652;DHT22;6899;51.546;6.912;2023-10-31T07:47:36;10.20;99.90
13652;DHT22;6899;51.546;6.912;2023-10-31T07:50:04;10.20;99.90
13652;DHT22;6899;51.546;6.912;2023-10-31T07:52:31;10.30;99.90
13652;DHT22;6899;51.546;6.912;2023-10-31T07:54:58;10.40;99.90
13652;DHT22;6899;51.546;6.912;2023-10-31T07:57:25;10.50;99.90
13652;DHT22;6899;51.546;6.912;2023-10-31T07:59:51;10.60;99.90
13652;DHT22;6899;51.546;6.912;2023-10-31T08:02:18;10.70;99.90
13652;DHT22;6899;51.546;6.912;2023-10-31T08:04:45;10.70;99.90
13652;DHT22;6899;51.546;6.912;2023-10-31T08:07:13;10.70;99.90
13652;DHT22;6899;51.546;6.912;2023-10-31T08:09:40;10.70;99.90
13652;DHT22;6899;51.546;6.912;2023-10-31T08:12:07;10.60;99.90
13652;DHT22;6899;51.546;6.912;2023-10-31T08:14:34;10.50;99.90
13652;DHT22;6899;51.546;6.912;2023-10-31T08:17:01;10.40;99.90
13652;DHT22;6899;51.546;6.912;2023-10-31T08:19:27;10.40;99.90
13652;DHT22;6899;51.546;6.912;2023-10-31T08:21:54;10.30;99.90
13652;DHT22;6899;51.546;6.912;2023-10-31T08:24:22;10.30;99.90
13652;DHT22;6899;51.546;6.912;2023-10-31T08:26:49;10.30;99.90
13652;DHT22;6899;51.546;6.912;2023-10-31T08:29:16;10.30;99.90
13652;DHT22;6899;51.546;6.912;2023-10-31T08:31:43;10.40;99.90
13652;DHT22;6899;51.546;6.912;2023-10-31T08:34:09;10.60;99.90
13652;DHT22;6899;51.546;6.912;2023-10-31T08:36:36;10.80;99.90
13652;DHT22;6899;51.546;6.912;2023-10-31T08:39:04;10.90;99.90
13652;DHT22;6899;51.546;6.912;2023-10-31T08:41:32;10.90;99.90
13652;DHT22;6899;51.546;6.912;2023-10-31T08:43:59;10.80;99.90
13652;DHT22;6899;51.546;6.912;2023-10-31T08:46:29;10.70;99.90
13652;DHT22;6899;51.546;6.912;2023-10-31T08:48:56;10.70;99.90
13652;DHT22;6899;51.546;6.912;2023-10-31T08:51:22;10.60;99.90
13652;DHT22;6899;51.546;6.912;2023-10-31T08:53:49;10.60;99.90
13652;DHT22;6899;51.546;6.912;2023-10-31T08:56:16;10.50;99.90
13652;DHT22;6899;51.546;6.912;2023-10-31T08:58:46;10.40;99.90
13652;DHT22;6899;51.546;6.912;2023-10-31T09:01:12;10.30;99.90
13652;DHT22;6899;51.546;6.912;2023-10-31T09:03:39;10.30;99.90
13652;DHT22;6899;51.546;6.912;2023-10-31T09:06:06;10.20;99.90
13652;DHT22;6899;51.546;6.912;2023-10-31T09:08:33;10.30;99.90
13652;DHT22;6899;51.546;6.912;2023-10-31T09:11:00;10.40;99.90
13652;DHT22;6899;51.546;6.912;2023-10-31T09:13:27;10.70;99.90
13652;DHT22;6899;51.546;6.912;2023-10-31T09:15:56;10.90;99.90
13652;DHT22;6899;51.546;6.912;2023-10-31T09:18:22;11.10;99.90
13652;DHT22;6899;51.546;6.912;2023-10-31T09:20:49;11.30;99.90
13652;DHT22;6899;51.546;6.912;2023-10-31T09:23:16;11.40;99.90
13652;DHT22;6899;51.546;6.912;2023-10-31T09:25:43;11.60;99.90
13652;DHT22;6899;51.546;6.912;2023-10-31T09:28:10;11.60;99.90
13652;DHT22;6899;51.546;6.912;2023-10-31T09:30:37;11.60;99.90
13652;DHT22;6899;51.546;6.912;2023-10-31T09:33:05;11.40;99.90
13652;DHT22;6899;51.546;6.912;2023-10-31T09:35:33;11.30;99.90
13652;DHT22;6899;51.546;6.912;2023-10-31T09:38:00;11.40;99.90
13652;DHT22;6899;51.546;6.912;2023-10-31T09:40:26;11.60;99.90
13652;DHT22;6899;51.546;6.912;2023-10-31T09:42:53;11.80;99.90
13652;DHT22;6899;51.546;6.912;2023-10-31T09:45:20;12.10;99.90
13652;DHT22;6899;51.546;6.912;2023-10-31T09:47:47;12.40;99.90
13652;DHT22;6899;51.546;6.912;2023-10-31T09:50:15;12.50;99.90
13652;DHT22;6899;51.546;6.912;2023-10-31T09:52:42;12.60;99.90
13652;DHT22;6899;51.546;6.912;2023-10-31T09:55:09;12.60;99.90
13652;DHT22;6899;51.546;6.912;2023-10-31T09:57:36;12.70;99.90
13652;DHT22;6899;51.546;6.912;2023-10-31T10:00:03;12.60;99.90
13652;DHT22;6899;51.546;6.912;2023-10-31T10:02:30;12.70;99.90
13652;DHT22;6899;51.546;6.912;2023-10-31T10:04:57;12.50;99.90
13652;DHT22;6899;51.546;6.912;2023-10-31T10:07:25;12.50;99.90
13652;DHT22;6899;51.546;6.912;2023-10-31T10:09:53;12.20;99.90
13652;DHT22;6899;51.546;6.912;2023-10-31T10:12:21;12.10;99.90
13652;DHT22;6899;51.546;6.912;2023-10-31T10:14:47;12.00;99.90
13652;DHT22;6899;51.546;6.912;2023-10-31T10:17:15;12.00;99.90
13652;DHT22;6899;51.546;6.912;2023-10-31T10:19:42;12.00;99.90
13652;DHT22;6899;51.546;6.912;2023-10-31T10:22:09;11.90;99.90
13652;DHT22;6899;51.546;6.912;2023-10-31T10:24:39;11.80;99.90
13652;DHT22;6899;51.546;6.912;2023-10-31T10:27:06;11.80;99.90
13652;DHT22;6899;51.546;6.912;2023-10-31T10:29:33;11.70;99.90
13652;DHT22;6899;51.546;6.912;2023-10-31T10:32:00;11.70;99.90
13652;DHT22;6899;51.546;6.912;2023-10-31T10:34:27;11.60;99.90
13652;DHT22;6899;51.546;6.912;2023-10-31T10:36:55;11.50;99.90
13652;DHT22;6899;51.546;6.912;2023-10-31T10:39:23;11.60;99.90
13652;DHT22;6899;51.546;6.912;2023-10-31T10:41:54;11.60;99.90
13652;DHT22;6899;51.546;6.912;2023-10-31T10:44:31;11.60;99.90
13652;DHT22;6899;51.546;6.912;2023-10-31T10:47:01;11.60;99.90
13652;DHT22;6899;51.546;6.912;2023-10-31T10:49:29;11.60;99.90
13652;DHT22;6899;51.546;6.912;2023-10-31T10:52:01;11.60;99.90
13652;DHT22;6899;51.546;6.912;2023-10-31T10:54:34;11.60;99.90
13652;DHT22;6899;51.546;6.912;2023-10-31T10:57:09;11.70;99.90
13652;DHT22;6899;51.546;6.912;2023-10-31T10:59:41;11.70;99.90
13652;DHT22;6899;51.546;6.912;2023-10-31T11:02:09;11.80;99.90
13652;DHT22;6899;51.546;6.912;2023-10-31T11:04:37;12.00;99.90
13652;DHT22;6899;51.546;6.912;2023-10-31T11:07:05;12.00;99.90
13652;DHT22;6899;51.546;6.912;2023-10-31T11:09:33;12.30;99.90
13652;DHT22;6899;51.546;6.912;2023-10-31T11:12:00;12.10;99.90
13652;DHT22;6899;51.546;6.912;2023-10-31T11:14:30;12.10;99.90
13652;DHT22;6899;51.546;6.912;2023-10-31T11:17:01;12.20;99.90
13652;DHT22;6899;51.546;6.912;2023-10-31T11:19:30;12.10;99.90
13652;DHT22;6899;51.546;6.912;2023-10-31T11:21:59;12.20;99.90
13652;DHT22;6899;51.546;6.912;2023-10-31T11:24:27;12.30;99.90
13652;DHT22;6899;51.546;6.912;2023-10-31T11:26:58;12.40;99.90
13652;DHT22;6899;51.546;6.912;2023-10-31T11:29:26;12.50;99.90
13652;DHT22;6899;51.546;6.912;2023-10-31T11:31:55;12.60;99.90
13652;DHT22;6899;51.546;6.912;2023-10-31T11:34:23;12.40;99.90
13652;DHT22;6899;51.546;6.912;2023-10-31T11:36:51;12.40;99.90
13652;DHT22;6899;51.546;6.912;2023-10-31T11:39:19;12.30;99.90
13652;DHT22;6899;51.546;6.912;2023-10-31T11:41:49;12.20;99.90
13652;DHT22;6899;51.546;6.912;2023-10-31T11:44:16;12.30;99.90
13652;DHT22;6899;51.546;6.912;2023-10-31T11:46:43;12.40;99.90
13652;DHT22;6899;51.546;6.912;2023-10-31T11:49:15;12.80;99.90
13652;DHT22;6899;51.546;6.912;2023-10-31T11:51:44;13.20;99.90
13652;DHT22;6899;51.546;6.912;2023-10-31T11:54:13;13.20;99.90
13652;DHT22;6899;51.546;6.912;2023-10-31T11:56:40;13.10;99.90
13652;DHT22;6899;51.546;6.912;2023-10-31T11:59:06;13.20;99.90
13652;DHT22;6899;51.546;6.912;2023-10-31T12:01:34;13.10;99.90
13652;DHT22;6899;51.546;6.912;2023-10-31T12:04:22;13.30;99.90
13652;DHT22;6899;51.546;6.912;2023-10-31T12:06:58;13.50;99.90
13652;DHT22;6899;51.546;6.912;2023-10-31T12:09:25;13.50;99.90
13652;DHT22;6899;51.546;6.912;2023-10-31T12:11:53;13.70;99.90
13652;DHT22;6899;51.546;6.912;2023-10-31T12:14:19;13.50;99.90
13652;DHT22;6899;51.546;6.912;2023-10-31T12:16:48;13.20;99.90
13652;DHT22;6899;51.546;6.912;2023-10-31T12:19:15;12.90;99.90
13652;DHT22;6899;51.546;6.912;2023-10-31T12:21:44;12.70;99.90
13652;DHT22;6899;51.546;6.912;2023-10-31T12:24:14;12.70;99.90
13652;DHT22;6899;51.546;6.912;2023-10-31T12:26:41;12.70;99.90
13652;DHT22;6899;51.546;6.912;2023-10-31T12:29:12;12.70;99.90
13652;DHT22;6899;51.546;6.912;2023-10-31T12:31:42;12.80;99.90
13652;DHT22;6899;51.546;6.912;2023-10-31T12:34:11;12.90;99.90
13652;DHT22;6899;51.546;6.912;2023-10-31T12:36:38;13.10;99.90
13652;DHT22;6899;51.546;6.912;2023-10-31T12:39:08;13.20;99.90
13652;DHT22;6899;51.546;6.912;2023-10-31T12:41:37;13.20;99.90
13652;DHT22;6899;51.546;6.912;2023-10-31T12:44:05;13.10;99.90
13652;DHT22;6899;51.546;6.912;2023-10-31T12:46:33;13.10;99.90
13652;DHT22;6899;51.546;6.912;2023-10-31T12:49:01;13.10;99.90
13652;DHT22;6899;51.546;6.912;2023-10-31T12:51:28;13.10;99.90
13652;DHT22;6899;51.546;6.912;2023-10-31T12:53:55;12.90;99.90
13652;DHT22;6899;51.546;6.912;2023-10-31T12:56:40;12.90;99.90
13652;DHT22;6899;51.546;6.912;2023-10-31T12:59:07;12.90;99.90
13652;DHT22;6899;51.546;6.912;2023-10-31T13:01:35;12.90;99.90
13652;DHT22;6899;51.546;6.912;2023-10-31T13:04:03;13.20;99.90
13652;DHT22;6899;51.546;6.912;2023-10-31T13:06:30;13.80;99.90
13652;DHT22;6899;51.546;6.912;2023-10-31T13:08:57;13.90;99.90
13652;DHT22;6899;51.546;6.912;2023-10-31T13:11:29;14.00;99.90
13652;DHT22;6899;51.546;6.912;2023-10-31T13:13:57;14.10;99.90
13652;DHT22;6899;51.546;6.912;2023-10-31T13:16:24;14.30;99.90
13652;DHT22;6899;51.546;6.912;2023-10-31T13:18:52;14.50;99.90
13652;DHT22;6899;51.546;6.912;2023-10-31T13:21:19;14.40;99.90
13652;DHT22;6899;51.546;6.912;2023-10-31T13:23:46;14.50;99.90
13652;DHT22;6899;51.546;6.912;2023-10-31T13:26:13;14.20;99.90
13652;DHT22;6899;51.546;6.912;2023-10-31T13:28:40;13.90;99.90
13652;DHT22;6899;51.546;6.912;2023-10-31T13:31:09;13.80;99.90
13652;DHT22;6899;51.546;6.912;2023-10-31T13:33:36;13.70;99.90
13652;DHT22;6899;51.546;6.912;2023-10-31T13:36:04;13.60;99.90
13652;DHT22;6899;51.546;6.912;2023-10-31T13:38:31;13.60;99.90
13652;DHT22;6899;51.546;6.912;2023-10-31T13:40:58;13.80;99.90
13652;DHT22;6899;51.546;6.912;2023-10-31T13:43:26;13.70;99.90
13652;DHT22;6899;51.546;6.912;2023-10-31T13:45:53;13.70;99.90
13652;DHT22;6899;51.546;6.912;2023-10-31T13:48:22;13.80;99.90
13652;DHT22;6899;51.546;6.912;2023-10-31T13:50:49;13.90;99.90
13652;DHT22;6899;51.546;6.912;2023-10-31T13:53:16;14.00;99.90
13652;DHT22;6899;51.546;6.912;2023-10-31T13:55:43;13.80;99.90
13652;DHT22;6899;51.546;6.912;2023-10-31T13:58:09;13.90;99.90
13652;DHT22;6899;51.546;6.912;2023-10-31T14:00:36;13.60;99.90
13652;DHT22;6899;51.546;6.912;2023-10-31T14:03:03;13.50;99.90
13652;DHT22;6899;51.546;6.912;2023-10-31T14:05:31;13.30;99.90
13652;DHT22;6899;51.546;6.912;2023-10-31T14:07:58;13.30;99.90
13652;DHT22;6899;51.546;6.912;2023-10-31T14:10:25;13.30;99.90
13652;DHT22;6899;51.546;6.912;2023-10-31T14:12:52;13.20;99.90
13652;DHT22;6899;51.546;6.912;2023-10-31T14:15:20;13.30;99.90
13652;DHT22;6899;51.546;6.912;2023-10-31T14:17:48;13.40;99.90
13652;DHT22;6899;51.546;6.912;2023-10-31T14:20:14;13.40;99.90
13652;DHT22;6899;51.546;6.912;2023-10-31T14:22:48;13.40;99.90
13652;DHT22;6899;51.546;6.912;2023-10-31T14:25:15;13.20;99.90
13652;DHT22;6899;51.546;6.912;2023-10-31T14:27:42;13.20;99.90
13652;DHT22;6899;51.546;6.912;2023-10-31T14:30:10;13.20;99.90
13652;DHT22;6899;51.546;6.912;2023-10-31T14:32:37;13.10;99.90
13652;DHT22;6899;51.546;6.912;2023-10-31T14:35:04;13.00;99.90
13652;DHT22;6899;51.546;6.912;2023-10-31T14:37:32;12.90;99.90
13652;DHT22;6899;51.546;6.912;2023-10-31T14:40:00;13.00;99.90
13652;DHT22;6899;51.546;6.912;2023-10-31T14:42:29;12.90;99.90
13652;DHT22;6899;51.546;6.912;2023-10-31T14:44:56;13.00;99.90
13652;DHT22;6899;51.546;6.912;2023-10-31T14:47:23;13.00;99.90
13652;DHT22;6899;51.546;6.912;2023-10-31T14:49:50;12.80;99.90
13652;DHT22;6899;51.546;6.912;2023-10-31T14:52:16;12.50;99.90
13652;DHT22;6899;51.546;6.912;2023-10-31T14:54:43;12.50;99.90
13652;DHT22;6899;51.546;6.912;2023-10-31T14:57:11;12.50;99.90
13652;DHT22;6899;51.546;6.912;2023-10-31T14:59:39;12.50;99.90
13652;DHT22;6899;51.546;6.912;2023-10-31T15:02:06;12.60;99.90
13652;DHT22;6899;51.546;6.912;2023-10-31T15:04:33;12.60;99.90
13652;DHT22;6899;51.546;6.912;2023-10-31T15:07:00;12.50;99.90
13652;DHT22;6899;51.546;6.912;2023-10-31T15:09:26;12.40;99.90
13652;DHT22;6899;51.546;6.912;2023-10-31T15:11:53;12.40;99.90
13652;DHT22;6899;51.546;6.912;2023-10-31T15:14:21;12.20;99.90
13652;DHT22;6899;51.546;6.912;2023-10-31T15:16:48;12.10;99.90
13652;DHT22;6899;51.546;6.912;2023-10-31T15:19:15;11.90;99.90
13652;DHT22;6899;51.546;6.912;2023-10-31T15:21:41;11.70;99.90
13652;DHT22;6899;51.546;6.912;2023-10-31T15:24:09;11.60;99.90
13652;DHT22;6899;51.546;6.912;2023-10-31T15:26:38;11.50;99.90
13652;DHT22;6899;51.546;6.912;2023-10-31T15:29:05;11.40;99.90
13652;DHT22;6899;51.546;6.912;2023-10-31T15:31:33;11.40;99.90
13652;DHT22;6899;51.546;6.912;2023-10-31T15:34:01;11.30;99.90
13652;DHT22;6899;51.546;6.912;2023-10-31T15:36:28;11.30;99.90
13652;DHT22;6899;51.546;6.912;2023-10-31T15:38:55;11.20;99.90
13652;DHT22;6899;51.546;6.912;2023-10-31T15:41:22;11.20;99.90
13652;DHT22;6899;51.546;6.912;2023-10-31T15:43:48;11.20;99.90
13652;DHT22;6899;51.546;6.912;2023-10-31T15:46:16;11.20;99.90
13652;DHT22;6899;51.546;6.912;2023-10-31T15:48:44;11.10;99.90
13652;DHT22;6899;51.546;6.912;2023-10-31T15:51:11;11.20;99.90
13652;DHT22;6899;51.546;6.912;2023-10-31T15:53:37;11.20;99.90